Time;durP1;ratioP1;P1;durP2;ratioP2;P2;SDS_P1;SDS_P2;PMS_P1;PMS_P2;Temp;Humidity;BMP_temperature;BMP_pressure;BME280_temperature;BME280_humidity;BME280_pressure;Samples;Min_cycle;Max_cycle;Signal;HPM_P1;HPM_P2
2022/05/24 00:00:17;;;;;;;0.00;0.00;;;18.50;97.30;;;;;;4100223;28;20063;-69
2022/05/24 00:02:42;;;;;;;0.00;0.00;;;18.50;97.30;;;;;;4113270;28;20047;-68
2022/05/24 00:05:09;;;;;;;0.00;0.00;;;18.40;97.20;;;;;;4113511;28;20045;-68
2022/05/24 00:07:35;;;;;;;0.00;0.00;;;18.30;97.30;;;;;;4113325;28;20156;-69
2022/05/24 00:10:00;;;;;;;0.00;0.00;;;18.30;97.20;;;;;;4113408;28;20047;-67
2022/05/24 00:12:34;;;;;;;0.00;0.00;;;18.40;97.00;;;;;;4125510;28;20142;-69
2022/05/24 00:15:20;;;;;;;0.00;0.00;;;18.40;96.90;;;;;;4113259;28;20078;-71
2022/05/24 00:17:51;;;;;;;0.00;0.00;;;18.50;96.80;;;;;;4113711;28;20050;-68
2022/05/24 00:20:16;;;;;;;0.00;0.00;;;18.60;96.60;;;;;;4113899;28;20100;-68
2022/05/24 00:22:38;;;;;;;0.00;0.00;;;18.50;96.30;;;;;;4114134;28;20330;-68
2022/05/24 00:25:01;;;;;;;0.00;0.00;;;18.40;96.20;;;;;;4113845;28;20157;-67
2022/05/24 00:27:24;;;;;;;0.00;0.00;;;18.30;96.10;;;;;;4113094;28;20138;-68
2022/05/24 00:29:59;;;;;;;0.00;0.00;;;18.20;96.30;;;;;;4101051;28;20090;-68
2022/05/24 00:32:27;;;;;;;0.00;0.00;;;18.20;96.60;;;;;;4138484;28;20054;-69
2022/05/24 00:34:56;;;;;;;0.00;0.00;;;18.20;96.70;;;;;;4113063;28;20047;-68
2022/05/24 00:37:40;;;;;;;0.00;0.00;;;18.20;96.80;;;;;;4113606;28;20070;-69
2022/05/24 00:40:09;;;;;;;0.00;0.00;;;18.20;96.80;;;;;;4113708;28;20365;-67
2022/05/24 00:42:35;;;;;;;0.00;0.00;;;18.10;96.90;;;;;;4155467;28;20041;-68
2022/05/24 00:45:22;;;;;;;0.00;0.00;;;18.10;96.80;;;;;;4129563;28;20046;-70
2022/05/24 00:47:53;;;;;;;0.00;0.00;;;18.20;96.80;;;;;;4114875;28;20111;-69
2022/05/24 00:50:25;;;;;;;0.00;0.00;;;18.30;96.50;;;;;;4130191;28;20444;-68
2022/05/24 00:52:56;;;;;;;0.00;0.00;;;18.30;96.40;;;;;;4145331;28;20141;-70
2022/05/24 00:55:22;;;;;;;0.00;0.00;;;18.40;96.30;;;;;;4131296;28;20086;-69
2022/05/24 00:57:58;;;;;;;0.00;0.00;;;18.40;96.00;;;;;;4145487;28;20054;-69
2022/05/24 01:00:23;;;;;;;0.00;0.00;;;18.30;95.90;;;;;;4131435;28;20562;-68
2022/05/24 01:03:03;;;;;;;0.00;0.00;;;18.10;96.10;;;;;;4131230;28;20046;-68
2022/05/24 01:05:28;;;;;;;0.00;0.00;;;18.10;96.40;;;;;;4131208;28;20074;-67
2022/05/24 01:07:54;;;;;;;0.00;0.00;;;18.10;96.30;;;;;;4117969;28;20062;-69
2022/05/24 01:10:45;;;;;;;0.00;0.00;;;18.20;96.20;;;;;;4117978;28;20489;-67
2022/05/24 01:13:16;;;;;;;0.00;0.00;;;18.20;95.80;;;;;;4145346;28;20050;-68
2022/05/24 01:15:44;;;;;;;0.00;0.00;;;18.10;95.80;;;;;;4131031;28;20103;-69
2022/05/24 01:18:06;;;;;;;0.00;0.00;;;18.10;95.60;;;;;;4145540;28;20034;-68
2022/05/24 01:20:36;;;;;;;0.00;0.00;;;18.20;95.60;;;;;;4145541;28;20668;-68
2022/05/24 01:23:19;;;;;;;0.00;0.00;;;18.30;95.60;;;;;;4133056;28;20520;-68
2022/05/24 01:26:02;;;;;;;0.00;0.00;;;18.40;95.50;;;;;;4159527;28;20695;-70
2022/05/24 01:28:50;;;;;;;0.00;0.00;;;18.40;95.30;;;;;;4133803;28;20074;-69
2022/05/24 01:31:19;;;;;;;0.00;0.00;;;18.30;95.20;;;;;;4148265;28;20046;-68
2022/05/24 01:36:33;;;;;;;0.00;0.00;;;18.20;95.60;;;;;;4133822;28;20212;-67
2022/05/24 01:39:01;;;;;;;0.00;0.00;;;18.20;95.70;;;;;;4133592;28;20069;-68
2022/05/24 01:41:37;;;;;;;0.00;0.00;;;18.20;95.60;;;;;;4147370;28;20478;-68
2022/05/24 01:44:03;;;;;;;0.00;0.00;;;18.20;95.50;;;;;;4120345;28;20085;-68
2022/05/24 01:46:37;;;;;;;0.00;0.00;;;18.20;95.50;;;;;;4133726;28;20500;-67
2022/05/24 01:49:04;;;;;;;0.00;0.00;;;18.20;95.50;;;;;;4133578;28;20046;-68
2022/05/24 01:51:41;;;;;;;0.00;0.00;;;18.10;95.70;;;;;;4160695;28;20146;-67
2022/05/24 01:54:05;;;;;;;0.00;0.00;;;17.90;96.00;;;;;;4133599;28;20455;-68
2022/05/24 01:56:57;;;;;;;0.00;0.00;;;17.70;96.50;;;;;;4146583;28;20115;-68
2022/05/24 01:59:23;;;;;;;0.00;0.00;;;17.50;97.10;;;;;;4133378;28;20066;-69
2022/05/24 02:01:52;;;;;;;0.00;0.00;;;17.50;97.40;;;;;;4146597;28;20053;-68
2022/05/24 02:04:17;;;;;;;0.00;0.00;;;17.50;97.40;;;;;;4133232;28;20573;-69
2022/05/24 02:06:39;;;;;;;0.00;0.00;;;17.40;97.80;;;;;;4160981;28;20045;-69
2022/05/24 02:09:06;;;;;;;0.00;0.00;;;17.30;97.80;;;;;;4120026;28;20058;-71
2022/05/24 02:11:31;;;;;;;0.00;0.00;;;17.30;98.20;;;;;;4119891;28;20051;-70
2022/05/24 02:14:07;;;;;;;0.00;0.00;;;17.20;98.20;;;;;;4120103;28;20051;-71
2022/05/24 02:16:36;;;;;;;0.00;0.00;;;17.20;98.20;;;;;;4133173;28;20056;-69
2022/05/24 02:19:02;;;;;;;0.00;0.00;;;17.20;98.40;;;;;;4132761;28;20086;-69
2022/05/24 02:21:27;;;;;;;0.00;0.00;;;17.20;98.30;;;;;;4119386;28;20117;-70
2022/05/24 02:23:53;;;;;;;0.00;0.00;;;17.00;98.30;;;;;;4133087;28;20054;-69
2022/05/24 02:26:21;;;;;;;0.00;0.00;;;17.00;98.60;;;;;;4133093;28;20074;-71
2022/05/24 02:28:51;;;;;;;0.00;0.00;;;16.90;98.70;;;;;;4147168;28;20573;-69
2022/05/24 02:31:18;;;;;;;0.00;0.00;;;16.90;98.90;;;;;;4120089;28;20046;-68
2022/05/24 02:33:40;;;;;;;0.00;0.00;;;16.80;99.10;;;;;;4132698;28;20129;-66
2022/05/24 02:36:03;;;;;;;0.00;0.00;;;16.90;99.20;;;;;;4119878;28;20054;-68
2022/05/24 02:38:28;;;;;;;0.00;0.00;;;16.90;99.20;;;;;;4132980;28;20039;-69
2022/05/24 02:43:31;;;;;;;0.00;0.00;;;16.90;99.20;;;;;;4159282;28;20049;-70
2022/05/24 02:45:56;;;;;;;0.00;0.00;;;16.90;99.10;;;;;;4146183;28;20056;-67
2022/05/24 02:48:18;;;;;;;0.00;0.00;;;16.80;99.20;;;;;;4119021;28;20057;-68
2022/05/24 02:50:42;;;;;;;0.00;0.00;;;16.80;99.20;;;;;;4132984;28;20052;-71
2022/05/24 02:53:05;;;;;;;0.00;0.00;;;16.70;99.20;;;;;;4119483;28;20089;-69
2022/05/24 02:55:27;;;;;;;0.00;0.00;;;16.60;99.40;;;;;;4119288;28;20046;-69
2022/05/24 02:57:51;;;;;;;0.00;0.00;;;16.60;99.60;;;;;;4119372;28;20046;-69
2022/05/24 03:00:19;;;;;;;0.00;0.00;;;16.50;99.70;;;;;;4132734;28;20042;-70
2022/05/24 03:02:44;;;;;;;0.00;0.00;;;16.40;99.90;;;;;;4132732;28;20050;-71
2022/05/24 03:05:10;;;;;;;0.00;0.00;;;16.40;99.90;;;;;;4119326;28;20377;-69
2022/05/24 03:10:12;;;;;;;0.00;0.00;;;16.50;99.90;;;;;;4132771;28;20376;-70
2022/05/24 03:15:18;;;;;;;0.00;0.00;;;16.60;99.60;;;;;;4119124;28;20118;-69
2022/05/24 03:17:43;;;;;;;0.00;0.00;;;16.40;99.70;;;;;;4118995;28;20436;-66
2022/05/24 03:20:08;;;;;;;0.00;0.00;;;16.40;99.90;;;;;;4119081;28;20378;-69
2022/05/24 03:22:30;;;;;;;0.00;0.00;;;16.40;99.90;;;;;;4146334;28;20057;-69
2022/05/24 03:24:52;;;;;;;0.00;0.00;;;16.50;99.80;;;;;;4132421;28;20046;-69
2022/05/24 03:27:17;;;;;;;0.00;0.00;;;16.40;99.70;;;;;;4132273;28;20129;-66
2022/05/24 03:29:42;;;;;;;0.00;0.00;;;16.30;99.80;;;;;;4132492;28;20403;-69
2022/05/24 03:32:08;;;;;;;0.00;0.00;;;16.20;99.90;;;;;;4119003;28;20564;-70
2022/05/24 03:34:34;;;;;;;0.00;0.00;;;16.20;99.90;;;;;;4132346;28;20133;-69
2022/05/24 03:37:01;;;;;;;0.00;0.00;;;16.20;99.90;;;;;;4132286;28;20046;-71
2022/05/24 03:39:23;;;;;;;0.00;0.00;;;16.20;99.90;;;;;;4132522;28;20051;-70
2022/05/24 03:41:47;;;;;;;0.00;0.00;;;16.10;99.90;;;;;;4159591;28;20050;-70
2022/05/24 03:44:12;;;;;;;0.00;0.00;;;16.20;99.90;;;;;;4132001;28;20110;-71
2022/05/24 03:46:33;;;;;;;0.00;0.00;;;16.30;99.90;;;;;;4132174;28;20350;-69
2022/05/24 03:48:58;;;;;;;0.00;0.00;;;16.30;99.90;;;;;;4132315;28;20046;-68
2022/05/24 03:51:20;;;;;;;0.00;0.00;;;16.40;99.90;;;;;;4118355;28;20057;-69
2022/05/24 03:53:42;;;;;;;0.00;0.00;;;16.30;99.90;;;;;;4132090;28;20084;-68
2022/05/24 03:56:08;;;;;;;0.00;0.00;;;16.20;99.90;;;;;;4132073;28;20056;-66
2022/05/24 03:58:30;;;;;;;0.00;0.00;;;16.20;99.90;;;;;;4118509;28;20058;-67
2022/05/24 04:00:54;;;;;;;0.00;0.00;;;16.20;99.90;;;;;;4105439;28;20057;-69
2022/05/24 04:03:17;;;;;;;0.00;0.00;;;16.30;99.90;;;;;;4131729;28;20116;-69
2022/05/24 04:05:44;;;;;;;0.00;0.00;;;16.30;99.90;;;;;;4118392;28;20047;-71
2022/05/24 04:08:06;;;;;;;0.00;0.00;;;16.20;99.80;;;;;;4145636;28;20459;-69
2022/05/24 04:10:32;;;;;;;0.00;0.00;;;16.30;99.70;;;;;;4159317;28;20136;-68
2022/05/24 04:12:57;;;;;;;0.00;0.00;;;16.00;99.90;;;;;;4131913;28;20127;-70
2022/05/24 04:15:19;;;;;;;0.00;0.00;;;15.80;99.90;;;;;;4159070;28;20041;-72
2022/05/24 04:17:42;;;;;;;0.00;0.00;;;15.90;99.90;;;;;;4118506;28;20068;-69
2022/05/24 04:20:06;;;;;;;0.00;0.00;;;16.20;99.90;;;;;;4145624;28;20106;-69
2022/05/24 04:22:30;;;;;;;0.00;0.00;;;16.30;99.90;;;;;;4145346;28;20093;-70
2022/05/24 04:24:52;;;;;;;0.00;0.00;;;16.50;99.90;;;;;;4118409;28;20171;-70
2022/05/24 04:27:16;;;;;;;0.00;0.00;;;16.70;99.80;;;;;;4131967;28;20129;-70
2022/05/24 04:29:42;;;;;;;0.00;0.00;;;16.80;99.30;;;;;;4118184;28;20074;-69
2022/05/24 04:32:04;;;;;;;0.00;0.00;;;17.00;99.00;;;;;;4132162;28;20051;-69
2022/05/24 04:34:28;;;;;;;0.00;0.00;;;17.00;98.80;;;;;;4159368;28;20067;-66
2022/05/24 04:36:50;;;;;;;0.00;0.00;;;17.20;98.50;;;;;;4118808;28;20051;-68
2022/05/24 04:39:13;;;;;;;0.00;0.00;;;17.20;98.10;;;;;;4118563;28;20082;-67
2022/05/24 04:44:16;;;;;;;0.00;0.00;;;17.20;98.10;;;;;;4115325;28;20059;-68
2022/05/24 04:49:19;;;;;;;0.00;0.00;;;17.10;97.60;;;;;;4129187;28;20057;-67
2022/05/24 04:51:43;;;;;;;0.00;0.00;;;17.10;97.30;;;;;;4185063;28;20535;-68
2022/05/24 04:54:05;;;;;;;0.00;0.00;;;17.10;97.00;;;;;;4186151;28;20045;-69
2022/05/24 04:56:30;;;;;;;0.00;0.00;;;17.10;96.90;;;;;;4201403;28;20455;-68
2022/05/24 04:58:52;;;;;;;0.00;0.00;;;17.10;96.80;;;;;;4202999;28;20403;-67
2022/05/24 05:01:14;;;;;;;0.00;0.00;;;17.20;96.90;;;;;;4203243;28;20072;-68
2022/05/24 05:03:38;;;;;;;0.00;0.00;;;17.30;96.90;;;;;;4189092;28;20056;-68
2022/05/24 05:06:05;;;;;;;0.00;0.00;;;17.40;96.70;;;;;;4202967;28;20041;-68
2022/05/24 05:08:30;;;;;;;0.00;0.00;;;17.40;96.60;;;;;;4203069;28;20438;-68
2022/05/24 05:10:56;;;;;;;0.00;0.00;;;17.40;96.50;;;;;;4203082;28;20066;-66
2022/05/24 05:13:18;;;;;;;0.00;0.00;;;17.40;96.40;;;;;;4188800;28;20060;-67
2022/05/24 05:15:45;;;;;;;0.00;0.00;;;17.40;96.30;;;;;;4202732;28;20110;-69
2022/05/24 05:18:15;;;;;;;0.00;0.00;;;17.50;96.30;;;;;;4202727;28;20128;-68
2022/05/24 05:20:42;;;;;;;0.00;0.00;;;17.50;96.20;;;;;;4188805;28;20119;-68
2022/05/24 05:23:08;;;;;;;0.00;0.00;;;17.50;96.20;;;;;;4188683;28;20041;-69
2022/05/24 05:25:33;;;;;;;0.00;0.00;;;17.40;96.00;;;;;;4188431;28;20044;-69
2022/05/24 05:27:55;;;;;;;0.00;0.00;;;17.30;96.20;;;;;;4202685;28;20063;-67
2022/05/24 05:33:02;;;;;;;0.00;0.00;;;17.20;96.20;;;;;;4202591;28;20478;-68
2022/05/24 05:35:27;;;;;;;0.00;0.00;;;17.20;96.20;;;;;;4188977;28;20123;-67
2022/05/24 05:37:49;;;;;;;0.00;0.00;;;17.00;96.30;;;;;;4188653;28;20056;-69
2022/05/24 05:40:12;;;;;;;0.00;0.00;;;17.00;96.70;;;;;;4202570;28;20040;-68
2022/05/24 05:42:38;;;;;;;0.00;0.00;;;17.20;96.80;;;;;;4203046;28;20052;-67
2022/05/24 05:45:02;;;;;;;0.00;0.00;;;17.30;96.70;;;;;;4202432;28;20147;-68
2022/05/24 05:47:27;;;;;;;0.00;0.00;;;17.40;96.60;;;;;;4188362;28;20112;-67
2022/05/24 05:49:51;;;;;;;0.00;0.00;;;17.40;96.50;;;;;;4188866;28;20048;-68
2022/05/24 05:52:15;;;;;;;0.00;0.00;;;17.50;96.40;;;;;;4202407;28;20391;-68
2022/05/24 05:54:45;;;;;;;0.00;0.00;;;17.60;96.40;;;;;;4188536;28;20053;-68
2022/05/24 05:57:11;;;;;;;0.00;0.00;;;17.60;96.40;;;;;;4188511;28;20052;-69
2022/05/24 05:59:34;;;;;;;0.00;0.00;;;17.50;96.20;;;;;;4188259;28;20479;-67
2022/05/24 06:01:58;;;;;;;0.00;0.00;;;17.30;96.50;;;;;;4201605;28;20049;-69
2022/05/24 06:04:22;;;;;;;0.00;0.00;;;17.10;96.80;;;;;;4188353;28;20049;-67
2022/05/24 06:06:47;;;;;;;0.00;0.00;;;17.00;96.90;;;;;;4202168;28;20041;-70
2022/05/24 06:09:09;;;;;;;0.00;0.00;;;16.90;97.10;;;;;;4187670;28;20126;-68
2022/05/24 06:11:34;;;;;;;0.00;0.00;;;17.00;97.30;;;;;;4201796;28;20082;-69
2022/05/24 06:13:56;;;;;;;0.00;0.00;;;16.90;97.10;;;;;;4188047;28;20056;-68
2022/05/24 06:16:29;;;;;;;0.00;0.00;;;16.90;97.20;;;;;;4201730;28;20049;-69
2022/05/24 06:18:51;;;;;;;0.00;0.00;;;16.80;97.40;;;;;;4201964;28;20045;-67
2022/05/24 06:21:18;;;;;;;0.00;0.00;;;16.70;97.70;;;;;;4174420;28;20624;-68
2022/05/24 06:23:40;;;;;;;0.00;0.00;;;16.60;97.70;;;;;;4201949;28;20059;-68
2022/05/24 06:26:10;;;;;;;0.00;0.00;;;16.80;97.70;;;;;;4201882;28;20072;-68
2022/05/24 06:28:33;;;;;;;0.00;0.00;;;16.90;97.40;;;;;;4201721;28;20067;-70
2022/05/24 06:30:55;;;;;;;0.00;0.00;;;17.00;97.20;;;;;;4201726;28;20083;-70
2022/05/24 06:33:20;;;;;;;0.00;0.00;;;17.10;97.10;;;;;;4201496;28;20053;-70
2022/05/24 06:35:44;;;;;;;0.00;0.00;;;17.30;97.00;;;;;;4187921;28;20048;-69
2022/05/24 06:38:07;;;;;;;0.00;0.00;;;17.40;97.10;;;;;;4187678;28;20727;-70
2022/05/24 06:40:34;;;;;;;0.00;0.00;;;17.40;97.00;;;;;;4201562;28;20056;-70
2022/05/24 06:42:56;;;;;;;0.00;0.00;;;17.50;96.90;;;;;;4199865;28;20075;-70
2022/05/24 06:45:18;;;;;;;0.00;0.00;;;17.50;96.50;;;;;;4186711;28;20072;-69
2022/05/24 06:47:40;;;;;;;0.00;0.00;;;17.30;96.60;;;;;;4200753;28;20040;-68
2022/05/24 06:50:04;;;;;;;0.00;0.00;;;17.20;96.70;;;;;;4201005;28;20147;-70
2022/05/24 06:52:27;;;;;;;0.00;0.00;;;17.20;96.80;;;;;;4201187;28;20060;-70
2022/05/24 06:54:49;;;;;;;0.00;0.00;;;17.30;96.50;;;;;;4198987;28;20040;-70
2022/05/24 06:57:15;;;;;;;0.00;0.00;;;17.30;95.70;;;;;;4205242;28;20489;-70
2022/05/24 07:02:26;;;;;;;0.00;0.00;;;17.30;96.20;;;;;;4188050;28;20497;-70
2022/05/24 07:04:50;;;;;;;0.00;0.00;;;17.40;95.70;;;;;;4172335;28;20049;-71
2022/05/24 07:07:12;;;;;;;0.00;0.00;;;17.30;95.30;;;;;;4186916;28;20574;-71
2022/05/24 07:09:34;;;;;;;0.00;0.00;;;17.30;95.10;;;;;;4201032;28;20353;-70
2022/05/24 07:11:59;;;;;;;0.00;0.00;;;17.20;95.30;;;;;;4200970;28;20106;-71
2022/05/24 07:14:23;;;;;;;0.00;0.00;;;17.20;95.70;;;;;;4201227;28;20079;-70
2022/05/24 07:16:45;;;;;;;0.00;0.00;;;17.20;95.60;;;;;;4187389;28;20087;-70
2022/05/24 07:19:07;;;;;;;0.00;0.00;;;17.20;95.50;;;;;;4186151;28;20059;-70
2022/05/24 07:21:32;;;;;;;0.00;0.00;;;17.30;95.50;;;;;;4199982;28;20048;-70
2022/05/24 07:23:58;;;;;;;0.00;0.00;;;17.20;96.10;;;;;;4187216;28;20052;-71
2022/05/24 07:26:24;;;;;;;0.00;0.00;;;17.10;96.10;;;;;;4187178;28;20515;-70
2022/05/24 07:29:08;;;;;;;0.00;0.00;;;17.10;96.20;;;;;;4200529;28;20052;-71
2022/05/24 07:31:32;;;;;;;0.00;0.00;;;17.00;95.20;;;;;;4200820;28;20063;-72
2022/05/24 07:33:54;;;;;;;0.00;0.00;;;16.50;94.10;;;;;;4187058;28;20456;-69
2022/05/24 07:36:18;;;;;;;0.00;0.00;;;16.10;93.70;;;;;;4187070;28;20058;-70
2022/05/24 07:38:40;;;;;;;0.00;0.00;;;15.60;93.30;;;;;;4186387;28;20044;-71
2022/05/24 07:46:27;;;;;;;0.00;0.00;;;15.10;93.80;;;;;;4200353;28;20048;-71
2022/05/24 07:48:53;;;;;;;0.00;0.00;;;14.90;94.20;;;;;;4200598;28;20459;-71
2022/05/24 07:51:15;;;;;;;0.00;0.00;;;14.90;93.90;;;;;;4193040;28;20134;-72
2022/05/24 07:53:37;;;;;;;0.00;0.00;;;14.90;93.70;;;;;;4200317;28;20132;-69
2022/05/24 07:55:59;;;;;;;0.00;0.00;;;14.70;93.80;;;;;;4189309;28;20132;-71
2022/05/24 07:58:22;;;;;;;0.00;0.00;;;14.70;94.40;;;;;;4203750;28;20063;-72
2022/05/24 08:00:44;;;;;;;0.00;0.00;;;14.70;93.90;;;;;;4189567;28;20048;-70
2022/05/24 08:03:06;;;;;;;0.00;0.00;;;14.60;94.10;;;;;;4189653;28;20041;-70
2022/05/24 08:05:30;;;;;;;0.00;0.00;;;14.60;94.20;;;;;;4203834;28;20036;-70
2022/05/24 08:07:56;;;;;;;0.00;0.00;;;14.70;94.20;;;;;;4189928;28;20040;-71
2022/05/24 08:10:21;;;;;;;0.00;0.00;;;14.90;94.10;;;;;;4189447;28;20060;-70
2022/05/24 08:12:47;;;;;;;0.00;0.00;;;15.00;93.90;;;;;;4203554;28;20036;-70
2022/05/24 08:15:13;;;;;;;0.00;0.00;;;15.10;94.00;;;;;;4189757;28;20042;-71
2022/05/24 08:17:34;;;;;;;0.00;0.00;;;15.10;93.60;;;;;;4166689;28;20046;-70
2022/05/24 08:19:59;;;;;;;0.00;0.00;;;15.00;93.60;;;;;;4122279;28;20072;-68
2022/05/24 08:22:21;;;;;;;0.00;0.00;;;15.00;93.60;;;;;;4129373;28;20050;-69
2022/05/24 08:24:43;;;;;;;0.00;0.00;;;15.10;93.80;;;;;;4103224;28;20477;-68
2022/05/24 08:27:11;;;;;;;0.00;0.00;;;15.10;93.70;;;;;;4103430;28;20038;-68
2022/05/24 08:29:34;;;;;;;0.00;0.00;;;15.00;93.90;;;;;;4116228;28;20513;-69
2022/05/24 08:31:59;;;;;;;0.00;0.00;;;15.00;93.80;;;;;;4132085;28;20480;-71
2022/05/24 08:34:25;;;;;;;0.00;0.00;;;15.00;94.00;;;;;;4118898;28;20117;-72
2022/05/24 08:36:47;;;;;;;0.00;0.00;;;15.00;94.20;;;;;;4158448;28;20177;-70
2022/05/24 08:39:12;;;;;;;0.00;0.00;;;15.00;94.00;;;;;;4134703;28;20090;-70
2022/05/24 08:42:07;;;;;;;0.00;0.00;;;15.10;94.10;;;;;;4134758;28;20074;-72
2022/05/24 08:50:31;;;;;;;0.00;0.00;;;15.40;93.90;;;;;;4134902;28;20093;-70
2022/05/24 08:53:12;;;;;;;0.00;0.00;;;15.50;93.80;;;;;;4125894;28;20148;-68
2022/05/24 08:55:40;;;;;;;0.00;0.00;;;15.60;93.60;;;;;;4132535;28;20403;-69
2022/05/24 08:58:09;;;;;;;0.00;0.00;;;15.40;93.50;;;;;;4105627;28;20116;-69
2022/05/24 09:00:37;;;;;;;0.00;0.00;;;15.40;93.40;;;;;;4092303;28;20102;-70
2022/05/24 09:03:05;;;;;;;0.00;0.00;;;15.60;93.30;;;;;;4119070;28;20065;-70
2022/05/24 09:05:35;;;;;;;0.00;0.00;;;15.50;93.20;;;;;;4132827;28;20081;-69
2022/05/24 09:08:00;;;;;;;0.00;0.00;;;15.40;92.90;;;;;;4118920;28;20094;-70
2022/05/24 09:10:28;;;;;;;0.00;0.00;;;15.20;92.90;;;;;;4118487;28;20108;-70
2022/05/24 09:13:27;;;;;;;0.00;0.00;;;15.20;93.00;;;;;;4105696;28;20061;-70
2022/05/24 09:15:52;;;;;;;0.00;0.00;;;15.20;92.80;;;;;;4118234;28;20043;-71
2022/05/24 09:18:23;;;;;;;0.00;0.00;;;15.20;92.90;;;;;;4091579;28;20055;-69
2022/05/24 09:20:52;;;;;;;0.00;0.00;;;15.20;92.90;;;;;;4105021;28;20055;-70
2022/05/24 09:23:46;;;;;;;0.00;0.00;;;15.20;92.90;;;;;;4118327;28;20133;-69
2022/05/24 09:26:11;;;;;;;0.00;0.00;;;15.30;92.90;;;;;;4204995;28;20110;-69
2022/05/24 09:28:55;;;;;;;0.00;0.00;;;15.00;93.20;;;;;;4134502;28;20050;-69
2022/05/24 09:31:38;;;;;;;0.00;0.00;;;15.20;93.50;;;;;;4134554;28;20104;-70
2022/05/24 09:34:07;;;;;;;0.00;0.00;;;15.30;93.20;;;;;;4134229;28;20097;-72
2022/05/24 09:36:37;;;;;;;0.00;0.00;;;15.10;93.00;;;;;;4147769;28;20077;-69
2022/05/24 09:39:02;;;;;;;0.00;0.00;;;15.00;93.20;;;;;;4133968;28;20047;-70
2022/05/24 09:41:24;;;;;;;0.00;0.00;;;15.00;93.40;;;;;;4148004;28;20097;-70
2022/05/24 09:44:03;;;;;;;0.00;0.00;;;15.00;93.60;;;;;;4132927;28;20047;-70
2022/05/24 09:46:32;;;;;;;0.00;0.00;;;15.00;93.60;;;;;;4134212;28;20165;-70
2022/05/24 09:49:00;;;;;;;0.00;0.00;;;15.00;93.70;;;;;;4134067;28;20077;-70
2022/05/24 09:51:55;;;;;;;0.00;0.00;;;14.80;93.40;;;;;;4133909;28;20058;-70
2022/05/24 09:54:25;;;;;;;0.00;0.00;;;14.60;93.40;;;;;;4121651;28;20097;-69
2022/05/24 09:57:13;;;;;;;0.00;0.00;;;14.60;93.90;;;;;;4120383;28;20043;-69
2022/05/24 09:59:56;;;;;;;0.00;0.00;;;14.90;93.50;;;;;;4120753;28;20051;-69
2022/05/24 10:02:30;;;;;;;0.00;0.00;;;14.90;93.60;;;;;;4120483;28;20084;-70
2022/05/24 10:04:54;;;;;;;0.00;0.00;;;14.80;94.00;;;;;;4120317;28;20061;-71
2022/05/24 10:07:21;;;;;;;0.00;0.00;;;14.80;94.10;;;;;;4121525;28;20469;-69
2022/05/24 10:10:02;;;;;;;0.00;0.00;;;14.80;94.30;;;;;;4133716;28;20050;-70
2022/05/24 10:12:57;;;;;;;0.00;0.00;;;14.30;95.00;;;;;;4133717;28;20096;-69
2022/05/24 10:15:23;;;;;;;0.00;0.00;;;14.20;95.40;;;;;;4133523;28;20050;-70
2022/05/24 10:18:00;;;;;;;0.00;0.00;;;14.30;95.80;;;;;;4120032;28;20100;-70
2022/05/24 10:20:47;;;;;;;0.00;0.00;;;14.40;95.50;;;;;;4120081;28;20043;-70
2022/05/24 10:23:34;;;;;;;0.00;0.00;;;14.40;95.10;;;;;;4120067;28;20078;-70
2022/05/24 10:26:00;;;;;;;0.00;0.00;;;14.40;95.10;;;;;;4133799;28;20054;-70
2022/05/24 10:28:37;;;;;;;0.00;0.00;;;14.60;94.80;;;;;;4131520;28;20050;-71
2022/05/24 10:31:34;;;;;;;0.00;0.00;;;14.80;94.70;;;;;;4130877;28;20055;-68
2022/05/24 10:40:05;;;;;;;0.00;0.00;;;14.50;95.30;;;;;;4141597;28;20054;-70
2022/05/24 10:42:30;;;;;;;0.00;0.00;;;14.60;95.30;;;;;;4104123;28;20418;-71
2022/05/24 10:45:11;;;;;;;0.00;0.00;;;14.70;95.00;;;;;;4131051;28;20167;-70
2022/05/24 10:47:56;;;;;;;0.00;0.00;;;14.50;94.70;;;;;;4145051;28;20056;-71
2022/05/24 10:50:42;;;;;;;0.00;0.00;;;14.60;94.50;;;;;;4104036;28;20115;-70
2022/05/24 10:53:25;;;;;;;0.00;0.00;;;14.70;94.40;;;;;;4130987;28;20076;-69
2022/05/24 10:56:19;;;;;;;0.00;0.00;;;14.80;94.80;;;;;;4130832;28;20050;-69
2022/05/24 10:58:41;;;;;;;;;;;14.90;94.30;;;;;;4120129;28;20058;-70
2022/05/24 11:01:20;;;;;;;0.00;0.00;;;14.70;94.40;;;;;;4133461;28;19953;-69
2022/05/24 11:03:47;;;;;;;0.00;0.00;;;14.80;94.30;;;;;;4133371;28;20487;-71
2022/05/24 11:06:27;;;;;;;0.00;0.00;;;14.80;94.30;;;;;;4146974;28;20805;-69
2022/05/24 11:08:58;;;;;;;0.00;0.00;;;15.00;94.50;;;;;;4119672;28;20254;-70
2022/05/24 11:11:22;;;;;;;0.00;0.00;;;15.10;94.30;;;;;;4147038;28;20050;-70
2022/05/24 11:14:00;;;;;;;0.00;0.00;;;15.10;94.30;;;;;;4133134;28;20050;-71
2022/05/24 11:16:33;;;;;;;0.00;0.00;;;15.10;94.40;;;;;;4133100;28;20058;-69
2022/05/24 11:18:56;;;;;;;0.00;0.00;;;15.00;94.40;;;;;;4146493;28;20053;-70
2022/05/24 11:21:37;;;;;;;0.00;0.00;;;15.10;94.20;;;;;;4133035;28;20114;-70
2022/05/24 11:24:08;;;;;;;0.00;0.00;;;15.10;94.20;;;;;;4132947;28;20118;-70
2022/05/24 11:26:39;;;;;;;0.00;0.00;;;15.20;94.20;;;;;;4144553;28;20058;-69
2022/05/24 11:29:54;;;;;;;0.00;0.00;;;15.20;94.10;;;;;;4132821;28;20569;-70
2022/05/24 11:32:47;;;;;;;0.00;0.00;;;15.00;93.80;;;;;;4138026;28;20141;-72
2022/05/24 11:35:26;;;;;;;0.00;0.00;;;15.10;93.70;;;;;;4132784;28;20478;-71
2022/05/24 11:37:55;;;;;;;0.00;0.00;;;15.00;93.90;;;;;;4119282;28;20078;-71
2022/05/24 11:40:38;;;;;;;0.00;0.00;;;14.70;94.20;;;;;;4119221;28;20090;-71
2022/05/24 11:43:08;;;;;;;0.00;0.00;;;14.70;94.30;;;;;;4159952;28;20077;-70
2022/05/24 11:45:31;;;;;;;0.00;0.00;;;14.70;94.50;;;;;;4175595;28;20055;-69
2022/05/24 11:48:07;;;;;;;0.00;0.00;;;14.90;94.10;;;;;;4146356;28;20037;-69
2022/05/24 11:50:40;;;;;;;0.00;0.00;;;14.80;94.00;;;;;;4132611;28;20350;-70
2022/05/24 11:53:09;;;;;;;0.00;0.00;;;14.70;94.20;;;;;;4132774;28;20050;-70
2022/05/24 11:55:40;;;;;;;0.00;0.00;;;14.70;94.50;;;;;;4132420;28;20058;-69
2022/05/24 11:58:32;;;;;;;0.00;0.00;;;14.90;94.90;;;;;;4119816;28;20062;-69
2022/05/24 12:01:04;;;;;;;0.00;0.00;;;15.00;94.80;;;;;;4132268;28;20463;-70
2022/05/24 12:09:23;;;;;;;0.00;0.00;;;15.30;94.30;;;;;;4132429;28;20104;-72
2022/05/24 12:12:11;;;;;;;0.00;0.00;;;15.40;94.20;;;;;;4132582;28;20170;-71
2022/05/24 12:14:41;;;;;;;0.00;0.00;;;15.50;94.10;;;;;;4132397;28;20051;-71
2022/05/24 12:17:06;;;;;;;0.00;0.00;;;15.40;93.80;;;;;;4118909;28;20082;-70
2022/05/24 12:19:43;;;;;;;0.00;0.00;;;15.50;93.80;;;;;;4132114;28;20046;-71
2022/05/24 12:22:11;;;;;;;0.00;0.00;;;15.70;93.70;;;;;;4132136;28;20119;-69
2022/05/24 12:24:36;;;;;;;0.00;0.00;;;15.90;93.20;;;;;;4118985;28;20387;-71
2022/05/24 12:27:40;;;;;;;0.00;0.00;;;15.90;92.60;;;;;;4118984;28;20126;-70
2022/05/24 12:30:28;;;;;;;0.00;0.00;;;16.00;92.60;;;;;;4132449;28;20116;-70
2022/05/24 12:32:52;;;;;;;0.00;0.00;;;16.10;93.10;;;;;;4119042;28;20058;-72
2022/05/24 12:35:19;;;;;;;0.00;0.00;;;16.00;92.10;;;;;;4118723;28;20516;-69
2022/05/24 12:37:56;;;;;;;0.00;0.00;;;15.80;92.30;;;;;;4176430;28;20049;-69
2022/05/24 12:40:21;;;;;;;0.00;0.00;;;15.80;92.20;;;;;;4132097;28;20051;-68
2022/05/24 12:42:58;;;;;;;0.00;0.00;;;16.10;92.10;;;;;;4105235;28;20054;-69
2022/05/24 12:45:35;;;;;;;0.00;0.00;;;16.40;91.80;;;;;;4118678;28;20051;-70
2022/05/24 12:47:57;;;;;;;0.00;0.00;;;16.40;91.30;;;;;;4131950;28;20035;-71
2022/05/24 12:50:36;;;;;;;0.00;0.00;;;16.20;91.20;;;;;;4118393;28;20425;-70
2022/05/24 12:53:03;;;;;;;0.00;0.00;;;16.10;91.20;;;;;;4118411;28;20062;-71
2022/05/24 12:58:14;;;;;;;0.00;0.00;;;16.20;91.20;;;;;;4131691;28;20046;-71
2022/05/24 13:00:36;;;;;;;0.00;0.00;;;16.30;91.10;;;;;;4131676;28;20062;-70
2022/05/24 13:03:01;;;;;;;0.00;0.00;;;16.30;91.10;;;;;;4159161;28;20045;-70
2022/05/24 13:05:39;;;;;;;0.00;0.00;;;16.10;91.20;;;;;;4118385;28;20382;-70
2022/05/24 13:08:04;;;;;;;0.00;0.00;;;15.90;91.30;;;;;;4118509;28;20047;-71
2022/05/24 13:10:30;;;;;;;0.00;0.00;;;15.90;91.50;;;;;;4131967;28;20088;-71
2022/05/24 13:13:01;;;;;;;0.00;0.00;;;15.90;91.50;;;;;;4132042;28;20054;-71
2022/05/24 13:15:31;;;;;;;0.00;0.00;;;16.00;91.20;;;;;;4131986;28;20043;-70
2022/05/24 13:18:02;;;;;;;0.00;0.00;;;16.00;91.20;;;;;;4120105;28;20082;-69
2022/05/24 13:20:30;;;;;;;0.00;0.00;;;16.00;91.20;;;;;;4134579;28;20430;-70
2022/05/24 13:23:01;;;;;;;0.00;0.00;;;16.10;91.30;;;;;;4120856;28;20053;-72
2022/05/24 13:25:27;;;;;;;0.00;0.00;;;16.10;91.30;;;;;;4134572;28;20050;-71
2022/05/24 13:28:00;;;;;;;0.00;0.00;;;16.20;91.10;;;;;;4117986;28;20082;-71
2022/05/24 13:33:33;;;;;;;0.00;0.00;;;15.80;91.20;;;;;;4104825;28;20059;-70
2022/05/24 13:35:56;;;;;;;0.00;0.00;;;15.80;91.20;;;;;;4189153;28;20121;-71
2022/05/24 13:38:29;;;;;;;0.00;0.00;;;16.00;91.10;;;;;;4117901;28;20051;-70
2022/05/24 13:40:58;;;;;;;0.00;0.00;;;16.10;90.90;;;;;;4118229;28;20086;-69
2022/05/24 13:43:34;;;;;;;0.00;0.00;;;16.10;90.90;;;;;;4105129;28;20050;-70
2022/05/24 13:46:15;;;;;;;0.00;0.00;;;16.20;90.50;;;;;;4118265;28;20046;-70